Time;durP1;ratioP1;P1;durP2;ratioP2;P2;SDS_P1;SDS_P2;PMS_P1;PMS_P2;Temp;Humidity;BMP_temperature;BMP_pressure;BME280_temperature;BME280_humidity;BME280_pressure;Samples;Min_cycle;Max_cycle;Signal;HPM_P1;HPM_P2
2024/02/28 00:02:03;;;;;;;9.30;7.47;;;;;;;6.37;73.51;96893.75;5056265;28;20236;-88
2024/02/28 00:04:30;;;;;;;11.67;7.37;;;;;;;6.45;73.03;96895.13;5056186;28;20205;-89
2024/02/28 00:06:58;;;;;;;10.17;6.77;;;;;;;6.37;71.60;96840.88;5054779;28;20263;-89
2024/02/28 00:09:24;;;;;;;9.67;7.53;;;;;;;6.71;72.38;96899.59;5055599;28;20275;-89
2024/02/28 00:11:51;;;;;;;12.27;8.30;;;;;;;6.19;72.83;96849.97;5055731;28;20217;-88
2024/02/28 00:14:20;;;;;;;16.43;7.50;;;;;;;6.47;73.04;96887.78;5054782;28;20204;-90
2024/02/28 00:16:47;;;;;;;13.87;9.10;;;;;;;6.06;73.97;96896.09;5055603;28;20202;-89
2024/02/28 00:19:15;;;;;;;13.73;7.57;;;;;;;5.87;74.55;96903.53;5054576;28;20271;-89
2024/02/28 00:21:42;;;;;;;12.37;6.90;;;;;;;5.89;74.68;96903.31;5047717;28;20275;-89
2024/02/28 00:24:09;;;;;;;11.67;7.30;;;;;;;6.01;73.23;96911.91;5055961;28;20742;-89
2024/02/28 00:26:36;;;;;;;10.57;8.33;;;;;;;6.02;73.54;96881.00;5056032;28;20197;-89
2024/02/28 00:29:03;;;;;;;13.13;7.87;;;;;;;6.16;73.08;96895.41;5055150;28;20204;-89
2024/02/28 00:31:31;;;;;;;14.53;7.97;;;;;;;6.06;73.15;96888.19;5056123;28;20209;-90
2024/02/28 00:33:58;;;;;;;7.87;6.23;;;;;;;5.87;73.48;96892.19;5055958;28;20206;-90
2024/02/28 00:36:25;;;;;;;14.10;6.93;;;;;;;6.15;73.57;96900.94;5056113;28;20208;-89
2024/02/28 00:38:52;;;;;;;7.70;6.90;;;;;;;6.06;72.99;96882.91;5054691;28;20201;-89
2024/02/28 00:41:18;;;;;;;11.97;6.70;;;;;;;5.25;73.19;96792.22;5055940;28;20398;-90
2024/02/28 00:43:45;;;;;;;12.87;7.90;;;;;;;5.89;74.43;96900.66;5055796;28;20255;-90
2024/02/28 00:46:12;;;;;;;13.17;7.67;;;;;;;5.42;74.77;96831.72;5054508;28;20198;-89
2024/02/28 00:48:41;;;;;;;13.70;9.43;;;;;;;6.05;75.45;96904.28;5055730;28;20248;-89
2024/02/28 00:51:08;;;;;;;13.90;7.57;;;;;;;6.18;73.68;96906.53;5054134;28;20202;-89
2024/02/28 00:53:35;;;;;;;10.57;6.60;;;;;;;6.10;73.62;96889.28;5055015;28;20252;-88
2024/02/28 00:56:02;;;;;;;11.77;8.30;;;;;;;5.97;73.04;96879.13;5055596;28;20272;-89
2024/02/28 00:58:29;;;;;;;10.80;6.80;;;;;;;5.98;74.01;96886.00;5053897;28;20284;-89
2024/02/28 01:00:56;;;;;;;11.50;6.83;;;;;;;6.06;74.13;96900.59;5054905;28;20229;-89
2024/02/28 01:03:23;;;;;;;9.57;6.97;;;;;;;6.00;74.11;96914.78;5055144;28;20283;-90
2024/02/28 01:05:52;;;;;;;14.63;6.83;;;;;;;5.98;73.60;96908.97;5056028;28;20204;-88
2024/02/28 01:08:19;;;;;;;16.67;6.87;;;;;;;5.58;75.01;96878.41;5055254;28;20208;-90
2024/02/28 01:10:46;;;;;;;12.73;6.57;;;;;;;5.94;74.17;96897.31;5055699;28;20205;-89
2024/02/28 01:13:13;;;;;;;11.50;6.93;;;;;;;5.79;74.61;96893.41;5055382;28;20688;-89
2024/02/28 01:15:40;;;;;;;12.33;7.07;;;;;;;5.72;75.63;96897.28;5054344;28;20202;-89
2024/02/28 01:18:07;;;;;;;8.27;6.33;;;;;;;5.60;75.88;96887.66;5054808;28;20281;-90
2024/02/28 01:20:34;;;;;;;11.33;6.60;;;;;;;6.03;74.91;96909.00;5046733;28;20209;-88
2024/02/28 01:23:02;;;;;;;11.87;7.00;;;;;;;5.87;74.17;96900.91;5054351;28;20197;-89
2024/02/28 01:25:29;;;;;;;11.33;6.27;;;;;;;5.85;73.71;96887.16;5054880;28;20209;-89
2024/02/28 01:27:57;;;;;;;12.83;7.27;;;;;;;5.62;75.34;96893.50;5054094;28;20205;-89
2024/02/28 01:30:24;;;;;;;14.57;7.23;;;;;;;5.60;74.58;96878.94;5054807;28;20205;-90
2024/02/28 01:32:51;;;;;;;10.93;6.47;;;;;;;5.82;74.27;96902.69;5054663;28;20229;-89
2024/02/28 01:35:18;;;;;;;10.50;5.73;;;;;;;5.83;74.10;96904.28;5055011;28;20252;-89
2024/02/28 01:37:45;;;;;;;12.37;6.37;;;;;;;5.61;74.34;96885.81;5053253;28;20201;-90
2024/02/28 01:40:14;;;;;;;11.37;6.83;;;;;;;5.64;74.26;96885.31;5054727;28;20722;-90
2024/02/28 01:42:40;;;;;;;12.03;9.07;;;;;;;5.67;74.36;96897.25;5054645;28;20209;-90
2024/02/28 01:45:09;;;;;;;11.03;7.50;;;;;;;5.48;75.28;96912.59;5053291;28;20263;-92
2024/02/28 01:47:37;;;;;;;13.40;8.03;;;;;;;5.44;75.08;96893.81;5054633;28;20205;-90
2024/02/28 01:50:04;;;;;;;14.07;7.73;;;;;;;5.39;73.57;96880.56;5052705;28;20201;-89
2024/02/28 01:52:33;;;;;;;14.63;7.33;;;;;;;5.56;73.49;96898.97;5053631;28;20221;-92
2024/02/28 01:55:00;;;;;;;12.47;6.67;;;;;;;5.69;73.28;96900.41;5054241;28;20220;-92
2024/02/28 01:57:29;;;;;;;9.03;6.83;;;;;;;5.57;73.37;96890.78;5054448;28;20607;-90
2024/02/28 01:59:57;;;;;;;8.97;7.17;;;;;;;5.49;73.67;96893.06;5054714;28;20205;-90
2024/02/28 02:02:24;;;;;;;12.00;6.70;;;;;;;5.46;74.09;96869.78;5054693;28;20225;-91
2024/02/28 02:04:52;;;;;;;9.27;5.80;;;;;;;5.45;74.31;96899.88;5053473;28;20207;-90
2024/02/28 02:07:19;;;;;;;11.60;6.53;;;;;;;5.34;75.15;96896.31;5053112;28;20263;-91
2024/02/28 02:09:47;;;;;;;9.13;6.73;;;;;;;5.39;75.09;96912.22;5053909;28;20656;-90
2024/02/28 02:12:13;;;;;;;12.13;6.33;;;;;;;5.26;74.64;96904.66;5054267;28;20225;-90
2024/02/28 02:14:42;;;;;;;12.33;7.57;;;;;;;5.31;74.09;96913.44;5054300;28;20730;-90
2024/02/28 02:17:09;;;;;;;12.80;5.93;;;;;;;5.33;73.66;96923.75;5052857;28;20206;-91
2024/02/28 02:19:45;;;;;;;10.43;6.37;;;;;;;5.37;73.58;96901.09;5053947;28;20213;-92
2024/02/28 02:22:15;;;;;;;8.73;6.73;;;;;;;5.15;72.92;96888.69;5053836;28;20208;-93
2024/02/28 02:24:43;;;;;;;6.20;5.03;;;;;;;5.08;75.17;96911.00;5054185;28;20197;-92
2024/02/28 02:27:10;;;;;;;7.80;6.00;;;;;;;4.94;76.03;96897.34;5054313;28;20233;-91
2024/02/28 02:29:37;;;;;;;9.77;5.87;;;;;;;4.94;75.54;96905.25;5054984;28;20231;-89
2024/02/28 02:32:04;;;;;;;8.77;6.03;;;;;;;5.01;75.35;96936.75;5053219;28;20197;-89
2024/02/28 02:34:31;;;;;;;11.20;6.67;;;;;;;5.13;74.94;96922.41;5053712;28;20198;-89
2024/02/28 02:36:58;;;;;;;10.80;7.37;;;;;;;5.40;73.57;96913.81;5054294;28;20198;-90
2024/02/28 02:39:24;;;;;;;10.07;5.30;;;;;;;5.39;72.87;96901.66;5054354;28;20202;-92
2024/02/28 02:41:53;;;;;;;11.67;6.03;;;;;;;5.06;73.56;96911.25;5053791;28;20208;-92
2024/02/28 02:44:19;;;;;;;10.63;6.10;;;;;;;5.25;74.07;96921.53;5052551;28;20225;-90
2024/02/28 02:46:46;;;;;;;12.60;6.67;;;;;;;4.86;74.30;96901.19;5054069;28;20209;-89
2024/02/28 02:49:13;;;;;;;9.00;5.93;;;;;;;5.09;74.48;96926.59;5053216;28;20233;-93
2024/02/28 02:51:42;;;;;;;10.80;5.67;;;;;;;5.34;74.04;96923.53;5053900;28;20206;-92
2024/02/28 02:54:09;;;;;;;8.07;5.10;;;;;;;5.21;74.56;96931.75;5052468;28;20334;-91
2024/02/28 02:56:36;;;;;;;13.67;6.20;;;;;;;5.23;75.58;96934.19;5053729;28;20284;-92
2024/02/28 02:59:04;;;;;;;12.23;6.43;;;;;;;4.93;76.50;96924.78;5052998;28;20205;-92
2024/02/28 03:01:31;;;;;;;7.83;5.60;;;;;;;4.70;77.38;96891.47;5052650;28;20226;-92
2024/02/28 03:03:58;;;;;;;13.60;7.00;;;;;;;4.84;76.11;96911.19;5053101;28;20272;-91
2024/02/28 03:06:25;;;;;;;9.33;5.40;;;;;;;4.62;75.21;96881.31;5053038;28;20202;-92
2024/02/28 03:08:50;;;;;;;9.37;6.40;;;;;;;5.35;73.83;96940.16;5051922;28;20245;-92
2024/02/28 03:11:17;;;;;;;7.97;5.73;;;;;;;4.51;74.10;96864.56;5052757;28;20225;-90
2024/02/28 03:13:44;;;;;;;9.83;7.03;;;;;;;4.88;75.11;96930.00;5053091;28;20232;-91
2024/02/28 03:16:12;;;;;;;12.10;6.73;;;;;;;4.86;74.86;96934.69;5053061;28;20209;-91
2024/02/28 03:18:39;;;;;;;8.37;5.87;;;;;;;4.94;74.73;96960.66;5051978;28;20202;-89
2024/02/28 03:21:06;;;;;;;8.30;6.07;;;;;;;4.92;74.40;96946.94;5052863;28;20209;-91
2024/02/28 03:23:35;;;;;;;8.57;7.13;;;;;;;5.06;74.18;96945.53;5052710;28;20210;-92
2024/02/28 03:26:03;;;;;;;11.30;6.80;;;;;;;4.92;73.52;96954.84;5052897;28;20237;-91
2024/02/28 03:28:30;;;;;;;12.67;6.57;;;;;;;4.97;74.51;96933.00;5051954;28;20209;-92
2024/02/28 03:30:56;;;;;;;32.90;27.47;;;;;;;5.06;74.30;96945.53;5053855;28;20209;-91
2024/02/28 03:33:25;;;;;;;22.37;12.80;;;;;;;4.86;75.18;96922.28;5053091;28;20684;-90
2024/02/28 03:35:52;;;;;;;10.97;7.07;;;;;;;4.85;75.32;96956.84;5054145;28;20244;-92
2024/02/28 03:38:19;;;;;;;8.83;7.93;;;;;;;4.85;75.33;96949.72;5053951;28;20625;-93
2024/02/28 03:40:46;;;;;;;14.20;6.67;;;;;;;4.80;75.28;96947.00;5053059;28;20276;-91
2024/02/28 03:43:13;;;;;;;11.80;6.97;;;;;;;4.91;74.97;96953.22;5053410;28;20611;-91
2024/02/28 03:45:40;;;;;;;12.93;6.90;;;;;;;4.88;74.76;96951.09;5053298;28;20202;-90
2024/02/28 03:48:24;;;;;;;10.00;6.63;;;;;;;4.80;74.88;96951.47;5051181;28;20206;-91
2024/02/28 03:51:05;;;;;;;9.33;8.33;;;;;;;4.66;76.19;96970.25;5052597;28;20209;-91
2024/02/28 03:53:32;;;;;;;11.43;7.53;;;;;;;4.53;76.52;96975.84;5051314;28;20232;-91
2024/02/28 03:55:59;;;;;;;12.77;7.83;;;;;;;4.55;76.59;96978.22;5053180;28;20206;-90
2024/02/28 03:58:26;;;;;;;20.70;12.50;;;;;;;4.45;77.02;96973.56;5052921;28;20213;-91
2024/02/28 04:00:52;;;;;;;21.33;13.33;;;;;;;4.46;76.80;96982.28;5053778;28;20784;-92
2024/02/28 04:03:19;;;;;;;20.03;14.30;;;;;;;4.57;76.29;96952.41;5051993;28;20205;-93
2024/02/28 04:05:46;;;;;;;15.10;10.47;;;;;;;4.80;75.75;96967.28;5053153;28;20198;-90
2024/02/28 04:08:15;;;;;;;17.43;9.83;;;;;;;4.49;76.34;96964.16;5053035;28;20213;-90
2024/02/28 04:10:42;;;;;;;13.13;7.80;;;;;;;4.43;75.85;96977.47;5052749;28;20201;-90
2024/02/28 04:13:09;;;;;;;11.40;6.80;;;;;;;4.38;76.02;96946.56;5053189;28;20222;-92
2024/02/28 04:15:37;;;;;;;12.33;7.53;;;;;;;4.84;75.20;96971.84;5055561;28;20201;-90
2024/02/28 04:18:04;;;;;;;10.93;7.47;;;;;;;4.95;75.79;96961.44;5055992;28;20201;-91
2024/02/28 04:20:31;;;;;;;8.47;6.23;;;;;;;4.84;75.06;96952.56;5056801;28;20570;-90
2024/02/28 04:22:57;;;;;;;8.93;7.30;;;;;;;4.64;76.82;96968.88;5056209;28;20212;-88
2024/02/28 04:25:26;;;;;;;10.50;5.90;;;;;;;4.55;77.85;96960.56;5056435;28;20194;-92
2024/02/28 04:27:52;;;;;;;11.70;6.23;;;;;;;4.59;76.36;96951.13;5055397;28;20213;-91
2024/02/28 04:30:19;;;;;;;9.83;5.93;;;;;;;4.90;75.97;96970.88;5055240;28;20679;-91
2024/02/28 04:32:46;;;;;;;12.60;8.03;;;;;;;4.69;76.28;96961.06;5056206;28;20225;-93
2024/02/28 04:35:15;;;;;;;13.40;7.40;;;;;;;4.55;77.16;96943.94;5056553;28;20213;-91
2024/02/28 04:37:42;;;;;;;12.73;8.97;;;;;;;4.56;76.55;96953.44;5055093;28;20209;-92
2024/02/28 04:40:10;;;;;;;32.20;17.77;;;;;;;4.58;76.65;96964.56;5036288;28;20198;-91
2024/02/28 04:42:38;;;;;;;20.93;11.37;;;;;;;4.49;75.85;96971.25;5049504;28;20210;-92
2024/02/28 04:45:08;;;;;;;15.50;8.80;;;;;;;4.08;76.59;96960.00;5054560;28;20285;-91
2024/02/28 04:47:38;;;;;;;19.20;10.30;;;;;;;3.92;76.99;96909.66;5055196;28;20208;-91
2024/02/28 04:50:06;;;;;;;19.63;9.40;;;;;;;4.35;76.27;96963.66;5055232;28;20645;-91
2024/02/28 04:52:33;;;;;;;13.07;8.07;;;;;;;4.20;75.62;96955.47;5055742;28;20652;-93
2024/02/28 04:55:00;;;;;;;10.57;7.57;;;;;;;4.03;76.24;96968.59;5046138;28;20213;-91
2024/02/28 04:57:27;;;;;;;16.70;9.50;;;;;;;4.09;77.11;96965.00;5055820;28;20201;-91
2024/02/28 04:59:55;;;;;;;15.83;8.83;;;;;;;4.27;77.00;96950.06;5054623;28;20292;-91
2024/02/28 05:02:24;;;;;;;10.23;7.33;;;;;;;4.53;75.32;96964.47;5055655;28;20236;-90
2024/02/28 05:04:51;;;;;;;10.17;8.37;;;;;;;4.22;75.78;96948.13;5055310;28;20198;-92
2024/02/28 05:07:21;;;;;;;12.67;8.03;;;;;;;4.41;75.44;96977.69;5055580;28;20206;-91
2024/02/28 05:10:05;;;;;;;12.27;7.63;;;;;;;4.50;75.97;96967.59;5056029;28;20267;-94
2024/02/28 05:12:32;;;;;;;13.93;9.07;;;;;;;4.35;76.20;96973.38;5040123;28;20207;-93
2024/02/28 05:15:00;;;;;;;13.33;8.87;;;;;;;4.51;76.41;96962.06;5034994;28;20230;-90
2024/02/28 05:17:36;;;;;;;12.30;9.03;;;;;;;4.50;76.35;96970.22;5047733;28;20204;-89
2024/02/28 05:20:03;;;;;;;13.63;9.37;;;;;;;4.72;77.18;96967.69;5054291;28;20204;-89
2024/02/28 05:22:30;;;;;;;15.23;8.60;;;;;;;4.20;76.77;96913.31;5052789;28;20202;-88
2024/02/28 05:24:57;;;;;;;12.77;8.33;;;;;;;4.58;76.97;96932.94;5053162;28;20201;-89
2024/02/28 05:27:27;;;;;;;11.63;7.77;;;;;;;5.05;76.66;96966.91;5053062;28;20193;-89
2024/02/28 05:29:54;;;;;;;11.47;7.73;;;;;;;5.09;76.10;96968.81;5052814;28;20240;-89
2024/02/28 05:32:25;;;;;;;12.83;8.33;;;;;;;5.08;75.59;96967.22;5053623;28;20194;-89
2024/02/28 05:34:51;;;;;;;14.60;8.33;;;;;;;4.77;76.40;96944.84;5053199;28;20217;-88
2024/02/28 05:37:19;;;;;;;12.73;8.87;;;;;;;4.92;76.21;96981.22;5052843;28;20197;-89
2024/02/28 05:39:46;;;;;;;16.53;9.80;;;;;;;4.56;77.03;96956.88;5053626;28;20237;-89
2024/02/28 05:42:13;;;;;;;21.77;8.97;;;;;;;4.90;77.33;96980.63;5052914;28;20193;-89
2024/02/28 05:44:43;;;;;;;15.67;8.90;;;;;;;4.81;77.60;96982.88;5052415;28;20194;-90
2024/02/28 05:47:10;;;;;;;12.63;8.77;;;;;;;4.68;77.82;96959.44;5053151;28;20198;-88
2024/02/28 05:49:39;;;;;;;9.53;7.80;;;;;;;4.95;77.91;96990.47;5052660;28;20190;-88
2024/02/28 05:52:06;;;;;;;10.53;8.20;;;;;;;4.80;77.69;96973.38;5053045;28;20616;-88
2024/02/28 05:54:33;;;;;;;17.33;10.67;;;;;;;4.73;78.08;96948.22;5052595;28;20217;-88
2024/02/28 05:57:00;;;;;;;23.73;12.37;;;;;;;5.00;77.52;96980.81;5052822;28;20209;-89
2024/02/28 05:59:27;;;;;;;13.67;9.50;;;;;;;5.24;76.46;96991.97;5051987;28;20198;-89
2024/02/28 06:01:54;;;;;;;21.20;11.37;;;;;;;4.97;77.81;96997.09;5046075;28;20226;-90
2024/02/28 06:04:21;;;;;;;25.50;11.83;;;;;;;4.78;77.57;96967.53;5050529;28;20247;-88
2024/02/28 06:06:50;;;;;;;19.30;11.83;;;;;;;4.43;78.40;96933.47;5052226;28;20209;-89
2024/02/28 06:09:17;;;;;;;17.20;11.47;;;;;;;4.49;78.08;96908.00;5052537;28;20205;-89
2024/02/28 06:11:44;;;;;;;24.40;13.10;;;;;;;5.15;77.99;97004.00;5052669;28;20205;-89
2024/02/28 06:14:11;;;;;;;25.30;16.23;;;;;;;5.45;78.19;97014.19;5037225;28;20227;-89
2024/02/28 06:16:37;;;;;;;39.93;22.13;;;;;;;5.28;76.62;96964.06;5052293;28;20201;-89
2024/02/28 06:19:04;;;;;;;36.47;22.67;;;;;;;5.37;76.89;96975.00;5051828;28;20252;-89
2024/02/28 06:21:31;;;;;;;54.47;32.23;;;;;;;5.66;78.00;97012.63;5052411;28;20225;-90
2024/02/28 06:23:59;;;;;;;40.67;26.17;;;;;;;5.66;77.96;96988.88;5051740;28;20205;-88
2024/02/28 06:26:27;;;;;;;22.33;15.87;;;;;;;5.96;77.97;97014.88;5054051;28;20707;-88
2024/02/28 06:28:53;;;;;;;22.23;16.17;;;;;;;6.08;78.18;97022.72;5052048;28;20194;-88
2024/02/28 06:31:20;;;;;;;19.00;13.53;;;;;;;6.41;77.53;97008.53;5052147;28;20267;-86
2024/02/28 06:33:47;;;;;;;20.73;13.57;;;;;;;6.43;77.11;97005.63;5052106;28;20217;-86
2024/02/28 06:36:14;;;;;;;21.80;14.80;;;;;;;6.19;77.82;96960.97;5051777;28;20620;-86
2024/02/28 06:38:41;;;;;;;16.70;11.77;;;;;;;6.74;78.97;97006.75;5051964;28;20208;-87
2024/02/28 06:41:09;;;;;;;14.23;10.07;;;;;;;6.30;78.49;96933.59;5051535;28;20202;-88
2024/02/28 06:43:38;;;;;;;11.97;8.40;;;;;;;6.49;79.32;97013.38;5051570;28;20213;-88
2024/02/28 06:46:05;;;;;;;14.57;9.33;;;;;;;6.75;78.82;97024.22;5051553;28;20213;-89
2024/02/28 06:48:32;;;;;;;14.33;10.20;;;;;;;6.66;78.74;97021.22;5038742;28;20201;-89
2024/02/28 06:50:59;;;;;;;19.73;12.00;;;;;;;6.74;78.24;97017.34;5051405;28;20263;-86
2024/02/28 06:53:27;;;;;;;19.80;14.00;;;;;;;6.99;77.64;97038.72;5051308;28;20790;-85
2024/02/28 06:55:53;;;;;;;24.23;14.03;;;;;;;6.76;76.03;97028.44;5051066;28;20289;-85
2024/02/28 06:58:26;;;;;;;28.80;15.13;;;;;;;6.61;76.58;96987.56;5051248;28;20248;-85
2024/02/28 07:00:53;;;;;;;34.37;18.33;;;;;;;7.05;76.20;97037.72;5051221;28;20229;-86
2024/02/28 07:03:19;;;;;;;29.87;18.40;;;;;;;7.03;76.18;97042.44;5051666;28;20201;-85
2024/02/28 07:05:46;;;;;;;28.93;19.67;;;;;;;6.96;76.01;97004.00;5050796;28;20206;-85
2024/02/28 07:08:13;;;;;;;27.27;17.73;;;;;;;7.23;75.56;97036.53;5051289;28;20204;-85
2024/02/28 07:10:43;;;;;;;24.87;16.90;;;;;;;7.53;75.12;97043.91;5051190;28;20277;-85
2024/02/28 07:13:11;;;;;;;33.83;20.80;;;;;;;7.92;74.48;97037.50;5051001;28;20200;-85
2024/02/28 07:15:39;;;;;;;21.47;14.40;;;;;;;7.96;74.44;97004.13;5050467;28;20688;-85
2024/02/28 07:18:06;;;;;;;22.20;14.13;;;;;;;8.25;74.02;96980.66;5051397;28;20208;-85
2024/02/28 07:20:33;;;;;;;18.47;13.03;;;;;;;8.67;73.83;97046.00;5050776;28;20206;-85
2024/02/28 07:23:00;;;;;;;33.93;20.20;;;;;;;8.38;73.59;96995.28;5051049;28;20205;-86
2024/02/28 07:25:27;;;;;;;22.60;16.63;;;;;;;8.85;73.55;97042.09;5050515;28;20668;-85
2024/02/28 07:27:54;;;;;;;22.00;12.60;;;;;;;8.66;73.21;97018.69;5051410;28;20199;-85
2024/02/28 07:30:23;;;;;;;17.93;11.93;;;;;;;9.20;72.05;97046.63;5050568;28;20194;-85
2024/02/28 07:32:52;;;;;;;17.03;11.40;;;;;;;9.50;70.74;97054.59;5051432;28;20197;-85
2024/02/28 07:35:19;;;;;;;13.80;9.83;;;;;;;9.52;70.39;97057.78;5051090;28;20217;-85
2024/02/28 07:37:46;;;;;;;18.47;11.37;;;;;;;9.81;70.10;97051.88;5050704;28;20574;-85
2024/02/28 07:40:13;;;;;;;15.53;9.53;;;;;;;9.36;70.29;97010.22;5050823;28;20225;-85
2024/02/28 07:42:40;;;;;;;17.33;10.67;;;;;;;9.76;69.63;97041.28;5050979;28;20620;-85
2024/02/28 07:45:08;;;;;;;17.10;11.37;;;;;;;10.14;68.70;97049.66;5050725;28;20243;-85
2024/02/28 07:47:35;;;;;;;13.37;9.40;;;;;;;10.16;67.65;97023.59;5050907;28;20209;-85
2024/02/28 07:50:03;;;;;;;15.83;8.33;;;;;;;10.20;67.75;97035.28;5053564;28;20190;-85
2024/02/28 07:52:30;;;;;;;14.03;8.73;;;;;;;10.56;67.07;97056.44;5055186;28;20198;-84
2024/02/28 07:54:57;;;;;;;23.10;11.83;;;;;;;10.33;66.06;96986.81;5054034;28;20232;-84
2024/02/28 07:57:24;;;;;;;24.43;14.93;;;;;;;10.84;66.02;97026.47;5054511;28;20194;-84
2024/02/28 07:59:50;;;;;;;10.87;8.60;;;;;;;10.77;65.94;97055.28;5041758;28;20287;-84
2024/02/28 08:02:19;;;;;;;15.40;7.90;;;;;;;10.55;66.96;97055.63;5054723;28;20696;-85
2024/02/28 08:04:46;;;;;;;12.83;7.30;;;;;;;10.81;66.56;97060.84;5054589;28;20208;-84
2024/02/28 08:07:14;;;;;;;16.40;8.03;;;;;;;11.17;65.33;97056.84;5054154;28;20609;-85
2024/02/28 08:09:41;;;;;;;10.90;8.23;;;;;;;11.66;63.73;97058.59;5054384;28;20610;-84
2024/02/28 08:12:08;;;;;;;21.47;12.53;;;;;;;12.21;62.60;97059.13;5054546;28;20197;-84
2024/02/28 08:14:35;;;;;;;17.23;10.77;;;;;;;12.18;61.56;97035.66;5054267;28;20228;-84
2024/02/28 08:17:02;;;;;;;21.07;15.07;;;;;;;11.98;62.10;97028.69;5054321;28;20259;-84
2024/02/28 08:19:29;;;;;;;27.97;16.37;;;;;;;12.57;59.92;97049.88;5054471;28;20190;-84
2024/02/28 08:21:55;;;;;;;25.33;15.30;;;;;;;12.87;58.88;97052.13;5054535;28;20206;-83
2024/02/28 08:24:24;;;;;;;26.77;15.13;;;;;;;12.68;59.78;97057.47;5053912;28;20255;-84
2024/02/28 08:26:50;;;;;;;22.30;12.57;;;;;;;12.90;57.71;97054.22;5054148;28;21237;-83
2024/02/28 08:29:17;;;;;;;21.90;13.67;;;;;;;13.13;57.62;97051.78;5054144;28;20217;-83
2024/02/28 08:31:46;;;;;;;16.07;11.33;;;;;;;12.96;56.31;97049.59;5054054;28;20225;-84
2024/02/28 08:34:13;;;;;;;27.13;16.20;;;;;;;13.25;56.95;97046.00;5053490;28;20692;-83
2024/02/28 08:36:40;;;;;;;38.57;24.20;;;;;;;13.41;55.47;97009.91;5053563;28;20676;-83
2024/02/28 08:39:09;;;;;;;22.10;15.80;;;;;;;13.82;54.54;97027.91;5053498;28;20198;-83
2024/02/28 08:41:37;;;;;;;29.93;16.70;;;;;;;13.45;55.14;97053.69;5054118;28;20285;-83
2024/02/28 08:44:04;;;;;;;22.43;13.97;;;;;;;13.60;55.09;97042.75;5053614;28;20657;-83
2024/02/28 08:46:31;;;;;;;32.57;20.57;;;;;;;14.03;54.86;97060.44;5053503;28;20198;-83
2024/02/28 08:48:58;;;;;;;52.47;30.57;;;;;;;13.83;54.36;97046.34;5053732;28;20205;-83
2024/02/28 08:51:24;;;;;;;49.20;27.40;;;;;;;13.63;54.78;97057.41;5053578;28;20202;-83
2024/02/28 08:53:53;;;;;;;20.83;13.97;;;;;;;13.14;56.63;97050.69;5053482;28;20201;-84
2024/02/28 08:56:20;;;;;;;28.13;19.10;;;;;;;12.97;55.87;97029.81;5053276;28;20198;-83
2024/02/28 08:58:48;;;;;;;15.63;12.23;;;;;;;12.82;56.76;97014.03;5053325;28;20255;-84
2024/02/28 09:01:16;;;;;;;20.50;13.30;;;;;;;12.94;57.03;97057.91;5051457;28;20766;-84
2024/02/28 09:03:43;;;;;;;30.37;13.80;;;;;;;13.23;56.56;97059.66;5053276;28;20209;-83
2024/02/28 09:06:09;;;;;;;25.50;16.93;;;;;;;13.37;55.94;97062.38;5053327;28;20190;-83
2024/02/28 09:08:36;;;;;;;41.73;23.13;;;;;;;13.77;55.25;97055.53;5053169;28;20209;-83
2024/02/28 09:11:05;;;;;;;26.33;19.17;;;;;;;13.56;55.42;97059.66;5053184;28;20252;-83
2024/02/28 09:13:31;;;;;;;43.50;25.63;;;;;;;13.78;54.22;97062.47;5053272;28;20210;-83
2024/02/28 09:16:00;;;;;;;67.20;38.17;;;;;;;13.93;53.91;97061.41;5052958;28;20275;-83
2024/02/28 09:18:26;;;;;;;16.93;13.13;;;;;;;14.28;53.28;97061.81;5053273;28;20197;-83
2024/02/28 09:20:53;;;;;;;23.70;16.10;;;;;;;14.06;52.38;97027.75;5053104;28;20202;-83
2024/02/28 09:23:21;;;;;;;20.17;13.20;;;;;;;14.17;52.47;97069.25;5053174;28;20199;-84
2024/02/28 09:25:48;;;;;;;17.33;11.17;;;;;;;15.05;50.81;97066.41;5052705;28;20233;-83
2024/02/28 09:28:16;;;;;;;15.47;10.47;;;;;;;15.28;49.56;97062.66;5053035;28;20193;-83
2024/02/28 09:30:42;;;;;;;23.17;13.80;;;;;;;15.55;48.82;97052.88;5052781;28;20221;-83
2024/02/28 09:33:11;;;;;;;20.93;12.67;;;;;;;16.20;47.57;97054.97;5052612;28;20195;-83
2024/02/28 09:35:38;;;;;;;17.80;12.07;;;;;;;16.96;45.71;97054.72;5052931;28;20309;-83
2024/02/28 09:38:05;;;;;;;17.13;10.83;;;;;;;16.19;46.23;97034.59;5052753;28;20243;-83
2024/02/28 09:40:32;;;;;;;23.17;12.10;;;;;;;16.52;45.99;97045.75;5052874;28;20353;-83
2024/02/28 09:43:03;;;;;;;30.37;18.80;;;;;;;16.38;45.68;97062.00;5052305;28;20657;-83
2024/02/28 09:45:32;;;;;;;19.40;11.10;;;;;;;16.31;46.53;97048.22;5061589;28;20226;-83
2024/02/28 09:47:59;;;;;;;19.70;12.57;;;;;;;16.77;45.10;97055.00;5056945;28;20546;-83
2024/02/28 09:50:28;;;;;;;21.10;12.67;;;;;;;16.81;44.31;97053.28;5052018;28;20197;-83
2024/02/28 09:52:55;;;;;;;17.57;10.47;;;;;;;15.87;45.42;97051.81;5052700;28;20201;-82
2024/02/28 09:55:22;;;;;;;14.30;10.20;;;;;;;16.03;45.81;97053.03;5052075;28;20281;-83
2024/02/28 09:57:51;;;;;;;15.90;10.87;;;;;;;16.04;45.88;97045.75;5051981;28;20209;-83
2024/02/28 10:00:20;;;;;;;21.67;12.23;;;;;;;16.53;44.94;97011.59;5052226;28;20613;-83
2024/02/28 10:02:49;;;;;;;13.03;10.10;;;;;;;16.81;43.67;97042.53;5052294;28;20232;-82
2024/02/28 10:05:19;;;;;;;12.67;9.17;;;;;;;16.73;42.62;97023.66;5052514;28;20240;-83
2024/02/28 10:07:47;;;;;;;21.33;13.43;;;;;;;16.93;43.26;97036.50;5052176;28;20209;-83
2024/02/28 10:10:16;;;;;;;12.67;8.57;;;;;;;17.87;42.01;97035.94;5052011;28;20300;-83
2024/02/28 10:12:44;;;;;;;16.00;8.80;;;;;;;17.78;40.78;97035.97;5051821;28;20695;-83
2024/02/28 10:15:11;;;;;;;25.97;15.90;;;;;;;17.66;41.45;97031.22;5051779;28;20703;-83
2024/02/28 10:17:38;;;;;;;21.17;13.00;;;;;;;17.50;40.97;97006.72;5052165;28;20205;-83
2024/02/28 10:20:06;;;;;;;18.87;11.30;;;;;;;18.27;40.46;97004.84;5052209;28;20210;-83
2024/02/28 10:22:36;;;;;;;16.73;9.47;;;;;;;18.15;39.13;97025.53;5051767;28;20255;-83
2024/02/28 10:25:05;;;;;;;15.80;8.50;;;;;;;17.89;40.77;96977.16;5051493;28;20225;-83
2024/02/28 10:27:34;;;;;;;13.13;9.50;;;;;;;18.22;39.66;97005.03;5046129;28;20202;-83
2024/02/28 10:30:01;;;;;;;13.07;6.90;;;;;;;18.01;37.34;96999.59;5047957;28;20628;-83
2024/02/28 10:32:28;;;;;;;12.37;6.73;;;;;;;18.27;36.83;97015.63;5041329;28;20194;-83
2024/02/28 10:34:55;;;;;;;9.63;7.07;;;;;;;18.70;37.13;97011.94;5051534;28;20283;-83
2024/02/28 10:37:23;;;;;;;12.73;7.83;;;;;;;18.24;36.95;97000.13;5051486;28;20198;-83
2024/02/28 10:39:53;;;;;;;11.67;6.83;;;;;;;17.87;36.93;96988.25;5051271;28;20216;-83
2024/02/28 10:42:23;;;;;;;10.13;6.83;;;;;;;17.87;37.64;97006.31;5051462;28;20285;-83
2024/02/28 10:44:52;;;;;;;10.43;6.33;;;;;;;17.61;37.34;97004.47;5051596;28;20194;-83
2024/02/28 10:47:19;;;;;;;12.10;6.80;;;;;;;17.89;36.82;97006.78;5051411;28;20653;-82
2024/02/28 10:49:46;;;;;;;11.60;6.70;;;;;;;18.16;36.70;97008.25;5051048;28;20208;-83
2024/02/28 10:52:16;;;;;;;10.63;7.00;;;;;;;18.46;35.52;96998.25;5051482;28;20202;-83
2024/02/28 10:54:44;;;;;;;10.37;7.73;;;;;;;17.97;37.04;96995.19;5051403;28;20577;-82
2024/02/28 10:57:13;;;;;;;15.17;8.30;;;;;;;18.18;36.58;96989.84;5051507;28;20197;-82
2024/02/28 10:59:43;;;;;;;10.57;6.20;;;;;;;18.16;35.83;96989.38;5051188;28;20567;-83
2024/02/28 11:02:10;;;;;;;12.87;8.00;;;;;;;19.15;34.47;96978.09;5051326;28;20224;-83
2024/02/28 11:04:38;;;;;;;9.43;7.00;;;;;;;19.27;33.89;96968.09;5051276;28;20202;-82
2024/02/28 11:07:05;;;;;;;10.73;7.17;;;;;;;18.21;36.90;96946.88;5050999;28;20202;-83
2024/02/28 11:09:32;;;;;;;13.53;8.03;;;;;;;17.46;39.26;96969.97;5038093;28;20225;-83
2024/02/28 11:11:59;;;;;;;15.30;9.93;;;;;;;17.42;40.32;96964.44;5051611;28;20197;-83
2024/02/28 11:14:26;;;;;;;6.67;5.13;;;;;;;18.33;36.14;96973.91;5050903;28;20213;-83
2024/02/28 11:17:04;;;;;;;9.27;5.77;;;;;;;17.85;37.06;96971.66;5051251;28;20221;-82
2024/02/28 11:19:32;;;;;;;8.57;5.67;;;;;;;17.74;36.30;96933.47;5040150;28;20622;-83
2024/02/28 11:22:00;;;;;;;9.07;7.60;;;;;;;17.49;40.34;96961.28;5051023;28;20638;-83
2024/02/28 11:24:31;;;;;;;20.03;11.23;;;;;;;17.70;37.99;96956.78;5050425;28;20191;-82
2024/02/28 11:26:58;;;;;;;29.33;17.07;;;;;;;17.90;36.70;96957.19;5050704;28;20288;-82
2024/02/28 11:29:26;;;;;;;16.37;9.03;;;;;;;17.91;36.50;96948.00;5050587;28;20262;-82
2024/02/28 11:31:53;;;;;;;15.97;9.80;;;;;;;18.16;36.64;96949.78;5050927;28;20190;-82